sensor_id;sensor_type;location;lat;lon;timestamp;pressure;altitude;pressure_sealevel;temperature;humidity
44079;BME280;29744;49.078;12.878;2023-03-22T00:01:25;96234.34;;;15.27;34.37
44079;BME280;29744;49.078;12.878;2023-03-22T00:06:27;96231.19;;;15.25;34.23
44079;BME280;29744;49.078;12.878;2023-03-22T00:11:28;96232.66;;;15.22;34.29
44079;BME280;29744;49.078;12.878;2023-03-22T00:16:28;96223.75;;;15.22;34.46
44079;BME280;29744;49.078;12.878;2023-03-22T00:21:28;96223.28;;;15.20;34.45
44079;BME280;29744;49.078;12.878;2023-03-22T00:26:28;96228.25;;;15.18;34.07
44079;BME280;29744;49.078;12.878;2023-03-22T00:31:29;96227.00;;;15.15;34.46
44079;BME280;29744;49.078;12.878;2023-03-22T00:36:29;96221.13;;;15.13;34.15
44079;BME280;29744;49.078;12.878;2023-03-22T00:41:29;96212.25;;;15.12;34.38
44079;BME280;29744;49.078;12.878;2023-03-22T00:46:30;96209.09;;;15.10;34.51
44079;BME280;29744;49.078;12.878;2023-03-22T00:51:30;96216.72;;;15.08;34.30
44079;BME280;29744;49.078;12.878;2023-03-22T00:56:30;96207.84;;;15.08;34.16
44079;BME280;29744;49.078;12.878;2023-03-22T01:01:32;96205.81;;;15.05;34.24
44079;BME280;29744;49.078;12.878;2023-03-22T01:06:33;96205.81;;;15.05;34.47
44079;BME280;29744;49.078;12.878;2023-03-22T01:11:33;96208.03;;;15.03;34.27
44079;BME280;29744;49.078;12.878;2023-03-22T01:16:35;96202.16;;;15.01;34.76
44079;BME280;29744;49.078;12.878;2023-03-22T01:21:36;96209.47;;;15.00;34.30
44079;BME280;29744;49.078;12.878;2023-03-22T01:26:36;96196.28;;;14.99;34.33
44079;BME280;29744;49.078;12.878;2023-03-22T01:31:37;96190.44;;;14.97;34.63
44079;BME280;29744;49.078;12.878;2023-03-22T01:36:38;96191.56;;;14.96;34.39
44079;BME280;29744;49.078;12.878;2023-03-22T01:41:38;96189.19;;;14.94;34.66
44079;BME280;29744;49.078;12.878;2023-03-22T01:46:39;96197.63;;;14.93;34.87
44079;BME280;29744;49.078;12.878;2023-03-22T01:51:41;96190.66;;;14.92;34.62
44079;BME280;29744;49.078;12.878;2023-03-22T01:56:43;96190.19;;;14.90;34.44
44079;BME280;29744;49.078;12.878;2023-03-22T02:01:43;96180.50;;;14.89;34.40
44079;BME280;29744;49.078;12.878;2023-03-22T02:06:46;96197.81;;;14.88;34.59
44079;BME280;29744;49.078;12.878;2023-03-22T02:17:41;96186.13;;;14.83;34.56
44079;BME280;29744;49.078;12.878;2023-03-22T02:23:07;96186.44;;;14.82;34.94
44079;BME280;29744;49.078;12.878;2023-03-22T02:28:30;96175.97;;;14.80;34.49
44079;BME280;29744;49.078;12.878;2023-03-22T02:33:58;96180.91;;;14.78;34.51
44079;BME280;29744;49.078;12.878;2023-03-22T02:39:23;96179.00;;;14.79;34.69
44079;BME280;29744;49.078;12.878;2023-03-22T02:44:41;96170.44;;;14.77;34.78
44079;BME280;29744;49.078;12.878;2023-03-22T02:49:48;96173.94;;;14.77;34.67
44079;BME280;29744;49.078;12.878;2023-03-22T02:55:03;96170.44;;;14.77;34.49
44079;BME280;29744;49.078;12.878;2023-03-22T03:00:08;96171.56;;;14.76;34.86
44079;BME280;29744;49.078;12.878;2023-03-22T03:05:13;96165.72;;;14.74;34.97
44079;BME280;29744;49.078;12.878;2023-03-22T03:10:16;96154.13;;;14.73;34.57
44079;BME280;29744;49.078;12.878;2023-03-22T03:15:19;96153.34;;;14.73;34.37
44079;BME280;29744;49.078;12.878;2023-03-22T03:20:37;96163.69;;;14.71;34.80
44079;BME280;29744;49.078;12.878;2023-03-22T03:25:51;96167.50;;;14.70;34.89
44079;BME280;29744;49.078;12.878;2023-03-22T03:31:07;96163.22;;;14.69;35.04
44079;BME280;29744;49.078;12.878;2023-03-22T03:36:11;96164.34;;;14.68;34.92
44079;BME280;29744;49.078;12.878;2023-03-22T03:41:17;96165.47;;;14.67;34.88
44079;BME280;29744;49.078;12.878;2023-03-22T03:46:19;96157.69;;;14.65;34.93
44079;BME280;29744;49.078;12.878;2023-03-22T03:51:20;96159.59;;;14.65;34.61
44079;BME280;29744;49.078;12.878;2023-03-22T03:56:20;96147.22;;;14.64;35.05
44079;BME280;29744;49.078;12.878;2023-03-22T04:01:20;96147.56;;;14.62;34.83
44079;BME280;29744;49.078;12.878;2023-03-22T04:06:21;96154.06;;;14.61;34.91
44079;BME280;29744;49.078;12.878;2023-03-22T04:11:21;96155.97;;;14.61;35.08
44079;BME280;29744;49.078;12.878;2023-03-22T04:16:21;96149.00;;;14.60;34.94
44079;BME280;29744;49.078;12.878;2023-03-22T04:21:24;96148.56;;;14.58;34.68
44079;BME280;29744;49.078;12.878;2023-03-22T04:26:24;96155.84;;;14.57;34.96
44079;BME280;29744;49.078;12.878;2023-03-22T04:31:24;96157.75;;;14.57;34.68
44079;BME280;29744;49.078;12.878;2023-03-22T04:36:25;96151.56;;;14.56;35.39
44079;BME280;29744;49.078;12.878;2023-03-22T04:41:31;96153.81;;;14.54;35.04
44079;BME280;29744;49.078;12.878;2023-03-22T04:46:33;96158.88;;;14.56;35.03
44079;BME280;29744;49.078;12.878;2023-03-22T04:51:34;96153.94;;;14.58;34.68
44079;BME280;29744;49.078;12.878;2023-03-22T04:56:34;96149.47;;;14.62;35.17
44079;BME280;29744;49.078;12.878;2023-03-22T05:01:35;96144.97;;;14.66;35.01
44079;BME280;29744;49.078;12.878;2023-03-22T05:06:36;96157.94;;;14.72;34.74
44079;BME280;29744;49.078;12.878;2023-03-22T05:11:36;96150.88;;;14.80;35.02
44079;BME280;29744;49.078;12.878;2023-03-22T05:16:37;96157.34;;;14.88;34.93
44079;BME280;29744;49.078;12.878;2023-03-22T05:21:40;96150.72;;;14.97;34.60
44079;BME280;29744;49.078;12.878;2023-03-22T05:26:43;96149.09;;;15.05;34.65
44079;BME280;29744;49.078;12.878;2023-03-22T05:31:43;96142.47;;;15.14;34.84
44079;BME280;29744;49.078;12.878;2023-03-22T05:36:43;96154.75;;;15.24;34.38
44079;BME280;29744;49.078;12.878;2023-03-22T05:41:44;96162.78;;;15.33;34.40
44079;BME280;29744;49.078;12.878;2023-03-22T05:46:45;96153.78;;;15.41;34.30
44079;BME280;29744;49.078;12.878;2023-03-22T05:51:45;96159.88;;;15.50;34.66
44079;BME280;29744;49.078;12.878;2023-03-22T05:56:46;96162.81;;;15.57;34.47
44079;BME280;29744;49.078;12.878;2023-03-22T06:01:46;96159.53;;;15.64;34.22
44079;BME280;29744;49.078;12.878;2023-03-22T06:06:46;96165.97;;;15.71;34.03
44079;BME280;29744;49.078;12.878;2023-03-22T06:11:47;96169.25;;;15.77;33.94
44079;BME280;29744;49.078;12.878;2023-03-22T06:16:47;96160.16;;;15.82;34.31
44079;BME280;29744;49.078;12.878;2023-03-22T06:21:47;96162.97;;;15.85;34.04
44079;BME280;29744;49.078;12.878;2023-03-22T06:26:47;96152.59;;;15.87;34.28
44079;BME280;29744;49.078;12.878;2023-03-22T06:31:48;96154.63;;;15.90;33.91
44079;BME280;29744;49.078;12.878;2023-03-22T06:36:48;96158.56;;;15.93;34.23
44079;BME280;29744;49.078;12.878;2023-03-22T06:41:48;96155.50;;;15.94;33.86
44079;BME280;29744;49.078;12.878;2023-03-22T06:46:49;96156.31;;;15.95;33.93
44079;BME280;29744;49.078;12.878;2023-03-22T06:51:50;96156.31;;;15.95;34.13
44079;BME280;29744;49.078;12.878;2023-03-22T06:56:50;96157.09;;;15.95;33.91
44079;BME280;29744;49.078;12.878;2023-03-22T07:01:50;96163.63;;;15.94;34.19
44079;BME280;29744;49.078;12.878;2023-03-22T07:06:50;96155.50;;;15.94;33.93
44079;BME280;29744;49.078;12.878;2023-03-22T07:11:51;96162.84;;;15.94;33.68
44079;BME280;29744;49.078;12.878;2023-03-22T07:16:51;96150.78;;;15.91;34.23
44079;BME280;29744;49.078;12.878;2023-03-22T07:21:51;96159.25;;;15.90;34.15
44079;BME280;29744;49.078;12.878;2023-03-22T07:26:51;96161.16;;;15.89;33.94
44079;BME280;29744;49.078;12.878;2023-03-22T07:31:52;96160.72;;;15.87;33.51
44079;BME280;29744;49.078;12.878;2023-03-22T07:36:52;96161.03;;;15.86;33.64
44079;BME280;29744;49.078;12.878;2023-03-22T07:41:52;96163.28;;;15.84;34.25
44079;BME280;29744;49.078;12.878;2023-03-22T07:46:52;96158.22;;;15.82;33.80
44079;BME280;29744;49.078;12.878;2023-03-22T07:51:53;96152.38;;;15.80;33.92
44079;BME280;29744;49.078;12.878;2023-03-22T07:56:53;96152.69;;;15.78;33.67
44079;BME280;29744;49.078;12.878;2023-03-22T08:01:53;96153.00;;;15.77;34.03
44079;BME280;29744;49.078;12.878;2023-03-22T08:06:54;96158.75;;;15.75;34.15
44079;BME280;29744;49.078;12.878;2023-03-22T08:11:57;96151.78;;;15.74;33.96
44079;BME280;29744;49.078;12.878;2023-03-22T08:16:57;96143.22;;;15.72;33.97
44079;BME280;29744;49.078;12.878;2023-03-22T08:21:58;96147.84;;;15.72;33.80
44079;BME280;29744;49.078;12.878;2023-03-22T08:26:58;96150.09;;;15.70;33.85
44079;BME280;29744;49.078;12.878;2023-03-22T08:31:59;96142.31;;;15.68;34.21
44079;BME280;29744;49.078;12.878;2023-03-22T08:37:03;96146.16;;;15.67;34.31
44079;BME280;29744;49.078;12.878;2023-03-22T08:42:03;96151.56;;;15.67;33.98
44079;BME280;29744;49.078;12.878;2023-03-22T08:47:04;96153.47;;;15.67;33.73
44079;BME280;29744;49.078;12.878;2023-03-22T08:52:04;96145.34;;;15.67;34.16
44079;BME280;29744;49.078;12.878;2023-03-22T08:57:06;96141.84;;;15.66;34.08
44079;BME280;29744;49.078;12.878;2023-03-22T09:02:08;96138.38;;;15.66;34.06
44079;BME280;29744;49.078;12.878;2023-03-22T09:07:08;96132.97;;;15.66;33.99
44079;BME280;29744;49.078;12.878;2023-03-22T09:12:09;96132.97;;;15.66;34.30
44079;BME280;29744;49.078;12.878;2023-03-22T09:17:09;96133.75;;;15.66;34.24
44079;BME280;29744;49.078;12.878;2023-03-22T09:22:10;96136.78;;;15.65;34.20
44079;BME280;29744;49.078;12.878;2023-03-22T09:27:11;96131.38;;;15.65;33.69
44079;BME280;29744;49.078;12.878;2023-03-22T09:32:11;96119.34;;;15.62;34.09
44079;BME280;29744;49.078;12.878;2023-03-22T09:37:11;96117.41;;;15.63;33.80
44079;BME280;29744;49.078;12.878;2023-03-22T09:42:35;96115.84;;;15.62;34.01
44079;BME280;29744;49.078;12.878;2023-03-22T09:47:40;96109.66;;;15.61;33.88
44079;BME280;29744;49.078;12.878;2023-03-22T09:52:42;96103.47;;;15.61;33.80
44079;BME280;29744;49.078;12.878;2023-03-22T09:57:45;96101.09;;;15.59;33.81
44079;BME280;29744;49.078;12.878;2023-03-22T10:18:38;96090.06;;;15.52;34.37
44079;BME280;29744;49.078;12.878;2023-03-22T10:23:47;96094.69;;;15.52;34.25
44079;BME280;29744;49.078;12.878;2023-03-22T10:28:56;96103.13;;;15.50;34.10
44079;BME280;29744;49.078;12.878;2023-03-22T10:34:04;96093.09;;;15.51;34.19
44079;BME280;29744;49.078;12.878;2023-03-22T10:39:20;96090.41;;;15.51;34.08
44079;BME280;29744;49.078;12.878;2023-03-22T10:44:25;96085.78;;;15.51;34.47
44079;BME280;29744;49.078;12.878;2023-03-22T10:49:31;96083.06;;;15.51;33.92
44079;BME280;29744;49.078;12.878;2023-03-22T10:54:32;96076.88;;;15.51;34.24
44079;BME280;29744;49.078;12.878;2023-03-22T10:59:47;96076.88;;;15.51;34.05
44079;BME280;29744;49.078;12.878;2023-03-22T11:04:51;96079.25;;;15.52;34.27
44079;BME280;29744;49.078;12.878;2023-03-22T11:10:12;96066.06;;;15.51;33.85
44079;BME280;29744;49.078;12.878;2023-03-22T11:15:29;96070.34;;;15.52;34.13
44079;BME280;29744;49.078;12.878;2023-03-22T11:20:31;96067.66;;;15.52;34.24
44079;BME280;29744;49.078;12.878;2023-03-22T11:25:34;96068.44;;;15.52;34.42
44079;BME280;29744;49.078;12.878;2023-03-22T11:30:35;96067.66;;;15.52;34.33
44079;BME280;29744;49.078;12.878;2023-03-22T11:35:37;96064.94;;;15.52;34.08
44079;BME280;29744;49.078;12.878;2023-03-22T11:40:48;96064.50;;;15.50;33.88
44079;BME280;29744;49.078;12.878;2023-03-22T11:45:55;96053.69;;;15.50;34.15
44079;BME280;29744;49.078;12.878;2023-03-22T11:51:09;96050.53;;;15.48;34.26
44079;BME280;29744;49.078;12.878;2023-03-22T11:56:14;96040.50;;;15.48;34.12
44079;BME280;29744;49.078;12.878;2023-03-22T12:01:23;96030.81;;;15.47;34.08
44079;BME280;29744;49.078;12.878;2023-03-22T12:06:32;96031.97;;;15.46;34.09
44079;BME280;29744;49.078;12.878;2023-03-22T12:11:39;96038.50;;;15.45;34.43
44079;BME280;29744;49.078;12.878;2023-03-22T12:16:46;96004.47;;;15.44;34.31
44079;BME280;29744;49.078;12.878;2023-03-22T12:21:48;95996.38;;;15.44;34.16
44079;BME280;29744;49.078;12.878;2023-03-22T12:26:50;95996.72;;;15.42;33.98
44079;BME280;29744;49.078;12.878;2023-03-22T12:32:01;95996.72;;;15.42;34.21
44079;BME280;29744;49.078;12.878;2023-03-22T12:37:04;95988.63;;;15.42;34.42
44079;BME280;29744;49.078;12.878;2023-03-22T12:42:14;95982.41;;;15.42;34.22
44079;BME280;29744;49.078;12.878;2023-03-22T12:47:27;95981.19;;;15.39;34.30
44079;BME280;29744;49.078;12.878;2023-03-22T12:52:33;95976.56;;;15.40;34.17
44079;BME280;29744;49.078;12.878;2023-03-22T12:57:36;95976.13;;;15.38;34.21
44079;BME280;29744;49.078;12.878;2023-03-22T13:02:38;95968.81;;;15.38;34.51
44079;BME280;29744;49.078;12.878;2023-03-22T13:13:15;95951.69;;;15.34;34.05
44079;BME280;29744;49.078;12.878;2023-03-22T13:23:35;95946.28;;;15.34;34.47
44079;BME280;29744;49.078;12.878;2023-03-22T13:28:35;95949.34;;;15.33;34.01
44079;BME280;29744;49.078;12.878;2023-03-22T13:33:37;95941.22;;;15.33;34.41
44079;BME280;29744;49.078;12.878;2023-03-22T13:38:41;95943.16;;;15.32;34.00
44079;BME280;29744;49.078;12.878;2023-03-22T13:54:28;95934.94;;;15.29;34.47
44079;BME280;29744;49.078;12.878;2023-03-22T13:59:31;95917.59;;;15.30;34.37
44079;BME280;29744;49.078;12.878;2023-03-22T14:05:06;95911.75;;;15.28;34.07
44079;BME280;29744;49.078;12.878;2023-03-22T14:10:24;95915.91;;;15.25;34.41
44079;BME280;29744;49.078;12.878;2023-03-22T14:15:27;95906.81;;;15.18;34.56
44079;BME280;29744;49.078;12.878;2023-03-22T14:20:34;95909.72;;;15.25;34.45
44079;BME280;29744;49.078;12.878;2023-03-22T14:25:35;95903.53;;;15.24;34.10
44079;BME280;29744;49.078;12.878;2023-03-22T14:30:37;95902.75;;;15.24;34.58
44079;BME280;29744;49.078;12.878;2023-03-22T14:35:41;95904.31;;;15.25;34.58
44079;BME280;29744;49.078;12.878;2023-03-22T14:40:45;95900.84;;;15.24;34.58
44079;BME280;29744;49.078;12.878;2023-03-22T14:45:46;95902.75;;;15.24;34.46
44079;BME280;29744;49.078;12.878;2023-03-22T14:50:51;95899.25;;;15.23;34.47
44079;BME280;29744;49.078;12.878;2023-03-22T14:55:52;95892.28;;;15.22;34.54
44079;BME280;29744;49.078;12.878;2023-03-22T15:00:53;95887.22;;;15.21;34.33
44079;BME280;29744;49.078;12.878;2023-03-22T15:05:53;95885.31;;;15.21;34.60
44079;BME280;29744;49.078;12.878;2023-03-22T15:10:56;95872.94;;;15.20;34.50
44079;BME280;29744;49.078;12.878;2023-03-22T15:15:57;95863.25;;;15.19;34.57
44079;BME280;29744;49.078;12.878;2023-03-22T15:20:59;95864.38;;;15.18;34.60
44079;BME280;29744;49.078;12.878;2023-03-22T15:26:27;95856.19;;;15.14;34.87
44079;BME280;29744;49.078;12.878;2023-03-22T15:31:31;95859.66;;;15.15;34.56
44079;BME280;29744;49.078;12.878;2023-03-22T15:36:32;95854.25;;;15.15;34.61
44079;BME280;29744;49.078;12.878;2023-03-22T15:41:40;95862.72;;;15.13;34.40
44079;BME280;29744;49.078;12.878;2023-03-22T15:46:59;95867.66;;;15.11;34.31
44079;BME280;29744;49.078;12.878;2023-03-22T15:57:47;95865.19;;;15.06;34.38
44079;BME280;29744;49.078;12.878;2023-03-22T16:02:59;95871.03;;;15.08;34.39
44079;BME280;29744;49.078;12.878;2023-03-22T16:08:00;95866.78;;;15.07;34.73
44079;BME280;29744;49.078;12.878;2023-03-22T16:13:21;95857.88;;;15.07;34.46
44079;BME280;29744;49.078;12.878;2023-03-22T16:18:22;95863.63;;;15.05;34.46
44079;BME280;29744;49.078;12.878;2023-03-22T16:23:25;95865.53;;;15.05;34.64
44079;BME280;29744;49.078;12.878;2023-03-22T16:28:25;95865.09;;;15.03;34.72
44079;BME280;29744;49.078;12.878;2023-03-22T16:33:26;95867.00;;;15.02;34.74
44079;BME280;29744;49.078;12.878;2023-03-22T16:38:26;95872.41;;;15.02;34.85
44079;BME280;29744;49.078;12.878;2023-03-22T16:43:27;95873.97;;;15.03;34.49
44079;BME280;29744;49.078;12.878;2023-03-22T16:48:27;95871.72;;;15.05;34.57
44079;BME280;29744;49.078;12.878;2023-03-22T16:53:28;95874.88;;;15.07;34.71
44079;BME280;29744;49.078;12.878;2023-03-22T16:58:28;95879.25;;;15.12;34.74
44079;BME280;29744;49.078;12.878;2023-03-22T17:03:29;95879.69;;;15.14;34.91
44079;BME280;29744;49.078;12.878;2023-03-22T17:08:29;95888.69;;;15.18;34.91
44079;BME280;29744;49.078;12.878;2023-03-22T17:13:29;95884.19;;;15.22;34.57
44079;BME280;29744;49.078;12.878;2023-03-22T17:18:29;95887.78;;;15.26;34.42
44079;BME280;29744;49.078;12.878;2023-03-22T17:23:30;95895.19;;;15.29;34.53
44079;BME280;29744;49.078;12.878;2023-03-22T17:28:31;95891.03;;;15.32;34.78
44079;BME280;29744;49.078;12.878;2023-03-22T17:33:33;95886.84;;;15.34;34.86
44079;BME280;29744;49.078;12.878;2023-03-22T17:38:33;95885.72;;;15.35;34.77
44079;BME280;29744;49.078;12.878;2023-03-22T17:43:34;95903.16;;;15.38;34.70
44079;BME280;29744;49.078;12.878;2023-03-22T17:48:34;95904.75;;;15.39;34.78
44079;BME280;29744;49.078;12.878;2023-03-22T17:53:34;95904.75;;;15.39;34.64
44079;BME280;29744;49.078;12.878;2023-03-22T17:58:35;95903.63;;;15.40;34.41
44079;BME280;29744;49.078;12.878;2023-03-22T18:03:35;95904.41;;;15.40;34.64
44079;BME280;29744;49.078;12.878;2023-03-22T18:08:36;95894.72;;;15.39;34.22
44079;BME280;29744;49.078;12.878;2023-03-22T18:13:36;95905.53;;;15.39;34.25
44079;BME280;29744;49.078;12.878;2023-03-22T18:18:38;95908.22;;;15.39;34.32
44079;BME280;29744;49.078;12.878;2023-03-22T18:23:38;95912.06;;;15.38;34.49
44079;BME280;29744;49.078;12.878;2023-03-22T18:28:39;95918.59;;;15.37;34.32
44079;BME280;29744;49.078;12.878;2023-03-22T18:33:41;95917.81;;;15.37;34.71
44079;BME280;29744;49.078;12.878;2023-03-22T18:38:44;95925.13;;;15.36;34.32
44079;BME280;29744;49.078;12.878;2023-03-22T18:43:45;95923.56;;;15.35;34.52
44079;BME280;29744;49.078;12.878;2023-03-22T18:48:45;95922.75;;;15.35;34.25
44079;BME280;29744;49.078;12.878;2023-03-22T18:53:46;95923.09;;;15.33;34.40
44079;BME280;29744;49.078;12.878;2023-03-22T18:58:46;95922.66;;;15.31;34.41
44079;BME280;29744;49.078;12.878;2023-03-22T19:03:46;95918.38;;;15.30;34.43
44079;BME280;29744;49.078;12.878;2023-03-22T19:08:47;95928.75;;;15.28;34.73
44079;BME280;29744;49.078;12.878;2023-03-22T19:13:48;95931.44;;;15.28;34.47
44079;BME280;29744;49.078;12.878;2023-03-22T19:18:48;95936.41;;;15.26;34.27
44079;BME280;29744;49.078;12.878;2023-03-22T19:23:48;95935.94;;;15.24;34.79
44079;BME280;29744;49.078;12.878;2023-03-22T19:28:49;95944.06;;;15.24;34.19
44079;BME280;29744;49.078;12.878;2023-03-22T19:33:49;95941.34;;;15.24;34.46
44079;BME280;29744;49.078;12.878;2023-03-22T19:38:49;95939.78;;;15.23;34.36
44079;BME280;29744;49.078;12.878;2023-03-22T19:43:50;95935.16;;;15.24;34.38
44079;BME280;29744;49.078;12.878;2023-03-22T19:48:51;95935.94;;;15.24;34.25
44079;BME280;29744;49.078;12.878;2023-03-22T19:53:51;95934.03;;;15.25;34.42
44079;BME280;29744;49.078;12.878;2023-03-22T19:58:52;95927.50;;;15.26;34.79
44079;BME280;29744;49.078;12.878;2023-03-22T20:03:52;95937.19;;;15.27;34.76
44079;BME280;29744;49.078;12.878;2023-03-22T20:08:53;95937.19;;;15.27;34.41
44079;BME280;29744;49.078;12.878;2023-03-22T20:13:53;95934.94;;;15.29;34.88
44079;BME280;29744;49.078;12.878;2023-03-22T20:18:53;95939.56;;;15.28;34.81
44079;BME280;29744;49.078;12.878;2023-03-22T20:23:54;95942.59;;;15.27;34.76
44079;BME280;29744;49.078;12.878;2023-03-22T20:28:54;95941.47;;;15.28;34.75
44079;BME280;29744;49.078;12.878;2023-03-22T20:33:55;95949.13;;;15.26;34.79
44079;BME280;29744;49.078;12.878;2023-03-22T20:38:56;95952.59;;;15.26;34.68
44079;BME280;29744;49.078;12.878;2023-03-22T20:43:56;95946.41;;;15.26;34.57
44079;BME280;29744;49.078;12.878;2023-03-22T20:48:56;95946.41;;;15.26;34.57
44079;BME280;29744;49.078;12.878;2023-03-22T20:53:57;95944.06;;;15.24;34.57
44079;BME280;29744;49.078;12.878;2023-03-22T20:58:58;95945.97;;;15.24;34.43
44079;BME280;29744;49.078;12.878;2023-03-22T21:04:00;95945.19;;;15.23;34.82
44079;BME280;29744;49.078;12.878;2023-03-22T21:09:00;95952.50;;;15.23;34.87
44079;BME280;29744;49.078;12.878;2023-03-22T21:14:01;95952.50;;;15.23;34.54
44079;BME280;29744;49.078;12.878;2023-03-22T21:19:02;95942.03;;;15.21;34.40
44079;BME280;29744;49.078;12.878;2023-03-22T21:24:03;95950.47;;;15.20;34.44
44079;BME280;29744;49.078;12.878;2023-03-22T21:29:03;95934.59;;;15.18;34.54
44079;BME280;29744;49.078;12.878;2023-03-22T21:34:06;95940.81;;;15.19;34.29
44079;BME280;29744;49.078;12.878;2023-03-22T21:39:06;95942.72;;;15.18;34.42
44079;BME280;29744;49.078;12.878;2023-03-22T21:44:07;95942.25;;;15.16;34.66
44079;BME280;29744;49.078;12.878;2023-03-22T21:49:07;95935.28;;;15.15;34.59
44079;BME280;29744;49.078;12.878;2023-03-22T21:54:08;95922.91;;;15.14;34.71
44079;BME280;29744;49.078;12.878;2023-03-22T21:59:09;95934.06;;;15.12;34.37
44079;BME280;29744;49.078;12.878;2023-03-22T22:04:10;95932.47;;;15.11;34.67
44079;BME280;29744;49.078;12.878;2023-03-22T22:09:11;95927.41;;;15.10;34.98
44079;BME280;29744;49.078;12.878;2023-03-22T22:14:12;95922.34;;;15.08;34.44
44079;BME280;29744;49.078;12.878;2023-03-22T22:19:12;95917.28;;;15.07;34.85
44079;BME280;29744;49.078;12.878;2023-03-22T22:24:13;95921.13;;;15.06;34.88
44079;BME280;29744;49.078;12.878;2023-03-22T22:29:13;95922.25;;;15.05;34.72
44079;BME280;29744;49.078;12.878;2023-03-22T22:34:13;95922.59;;;15.03;34.88
44079;BME280;29744;49.078;12.878;2023-03-22T22:39:14;95932.59;;;15.03;34.48
44079;BME280;29744;49.078;12.878;2023-03-22T22:44:14;95922.91;;;15.02;34.81
44079;BME280;29744;49.078;12.878;2023-03-22T22:49:15;95923.56;;;14.99;34.83
44079;BME280;29744;49.078;12.878;2023-03-22T22:54:15;95920.09;;;14.98;34.58
44079;BME280;29744;49.078;12.878;2023-03-22T22:59:16;95923.13;;;14.97;34.77
44079;BME280;29744;49.078;12.878;2023-03-22T23:04:16;95928.53;;;14.97;35.10
44079;BME280;29744;49.078;12.878;2023-03-22T23:09:18;95924.59;;;14.94;34.91
44079;BME280;29744;49.078;12.878;2023-03-22T23:14:20;95923.78;;;14.94;34.63
44079;BME280;29744;49.078;12.878;2023-03-22T23:19:29;95917.16;;;14.91;35.03
44079;BME280;29744;49.078;12.878;2023-03-22T23:24:31;95922.56;;;14.91;34.86
44079;BME280;29744;49.078;12.878;2023-03-22T23:29:33;95912.88;;;14.90;34.94
44079;BME280;29744;49.078;12.878;2023-03-22T23:34:36;95910.53;;;14.89;35.19
44079;BME280;29744;49.078;12.878;2023-03-22T23:39:36;95916.25;;;14.87;35.01
44079;BME280;29744;49.078;12.878;2023-03-22T23:44:37;95924.34;;;14.87;34.86
44079;BME280;29744;49.078;12.878;2023-03-22T23:49:37;95916.59;;;14.86;35.03
44079;BME280;29744;49.078;12.878;2023-03-22T23:54:38;95910.41;;;14.85;35.17
44079;BME280;29744;49.078;12.878;2023-03-22T23:59:39;95909.97;;;14.83;34.87
